sensor_id;sensor_type;location;lat;lon;timestamp;P1;durP1;ratioP1;P2;durP2;ratioP2
68449;SDS011;67758;39.572;2.652;2023-12-28T00:00:56;12.75;;;6.03;;
68449;SDS011;67758;39.572;2.652;2023-12-28T00:04:00;13.37;;;6.93;;
68449;SDS011;67758;39.572;2.652;2023-12-28T00:06:51;10.88;;;6.20;;
68449;SDS011;67758;39.572;2.652;2023-12-28T00:12:51;13.18;;;6.15;;
68449;SDS011;67758;39.572;2.652;2023-12-28T00:15:44;13.30;;;6.13;;
68449;SDS011;67758;39.572;2.652;2023-12-28T00:18:35;11.57;;;5.40;;
68449;SDS011;67758;39.572;2.652;2023-12-28T00:21:27;12.35;;;5.93;;
68449;SDS011;67758;39.572;2.652;2023-12-28T00:24:42;11.35;;;5.90;;
68449;SDS011;67758;39.572;2.652;2023-12-28T00:27:28;11.65;;;5.88;;
68449;SDS011;67758;39.572;2.652;2023-12-28T00:30:12;12.63;;;5.75;;
68449;SDS011;67758;39.572;2.652;2023-12-28T00:33:00;11.70;;;6.20;;
68449;SDS011;67758;39.572;2.652;2023-12-28T00:35:48;12.25;;;6.30;;
68449;SDS011;67758;39.572;2.652;2023-12-28T00:38:33;13.82;;;7.32;;
68449;SDS011;67758;39.572;2.652;2023-12-28T00:41:18;12.60;;;6.10;;
68449;SDS011;67758;39.572;2.652;2023-12-28T00:44:07;14.07;;;6.22;;
68449;SDS011;67758;39.572;2.652;2023-12-28T00:46:55;11.77;;;6.63;;
68449;SDS011;67758;39.572;2.652;2023-12-28T00:49:40;13.27;;;7.05;;
68449;SDS011;67758;39.572;2.652;2023-12-28T00:52:24;13.98;;;6.60;;
68449;SDS011;67758;39.572;2.652;2023-12-28T00:55:09;11.82;;;6.47;;
68449;SDS011;67758;39.572;2.652;2023-12-28T00:57:54;12.55;;;6.07;;
68449;SDS011;67758;39.572;2.652;2023-12-28T01:00:38;12.93;;;6.47;;
68449;SDS011;67758;39.572;2.652;2023-12-28T01:03:22;13.35;;;6.63;;
68449;SDS011;67758;39.572;2.652;2023-12-28T01:06:07;11.20;;;6.45;;
68449;SDS011;67758;39.572;2.652;2023-12-28T01:08:53;12.15;;;6.38;;
68449;SDS011;67758;39.572;2.652;2023-12-28T01:11:37;11.95;;;6.18;;
68449;SDS011;67758;39.572;2.652;2023-12-28T01:14:34;11.83;;;6.00;;
68449;SDS011;67758;39.572;2.652;2023-12-28T01:17:46;12.77;;;5.90;;
68449;SDS011;67758;39.572;2.652;2023-12-28T01:20:31;11.45;;;6.28;;
68449;SDS011;67758;39.572;2.652;2023-12-28T01:23:20;12.55;;;5.78;;
68449;SDS011;67758;39.572;2.652;2023-12-28T01:26:13;12.90;;;5.80;;
68449;SDS011;67758;39.572;2.652;2023-12-28T01:32:09;12.73;;;6.03;;
68449;SDS011;67758;39.572;2.652;2023-12-28T01:35:28;10.75;;;5.68;;
68449;SDS011;67758;39.572;2.652;2023-12-28T01:38:30;12.57;;;6.20;;
68449;SDS011;67758;39.572;2.652;2023-12-28T01:41:34;11.32;;;6.28;;
68449;SDS011;67758;39.572;2.652;2023-12-28T01:44:20;11.00;;;6.07;;
68449;SDS011;67758;39.572;2.652;2023-12-28T01:47:05;10.38;;;6.20;;
68449;SDS011;67758;39.572;2.652;2023-12-28T01:49:54;11.18;;;5.78;;
68449;SDS011;67758;39.572;2.652;2023-12-28T01:52:40;10.70;;;5.82;;
68449;SDS011;67758;39.572;2.652;2023-12-28T01:55:30;10.55;;;5.85;;
68449;SDS011;67758;39.572;2.652;2023-12-28T01:58:18;13.20;;;6.07;;
68449;SDS011;67758;39.572;2.652;2023-12-28T02:01:04;11.55;;;6.25;;
68449;SDS011;67758;39.572;2.652;2023-12-28T02:06:45;10.70;;;5.82;;
68449;SDS011;67758;39.572;2.652;2023-12-28T02:09:32;11.98;;;6.40;;
68449;SDS011;67758;39.572;2.652;2023-12-28T02:12:19;16.33;;;6.90;;
68449;SDS011;67758;39.572;2.652;2023-12-28T02:15:33;10.90;;;5.80;;
68449;SDS011;67758;39.572;2.652;2023-12-28T02:18:22;10.63;;;5.35;;
68449;SDS011;67758;39.572;2.652;2023-12-28T02:21:45;10.25;;;5.13;;
68449;SDS011;67758;39.572;2.652;2023-12-28T02:24:51;10.32;;;5.03;;
68449;SDS011;67758;39.572;2.652;2023-12-28T02:27:48;9.23;;;4.40;;
68449;SDS011;67758;39.572;2.652;2023-12-28T02:30:32;9.45;;;4.85;;
68449;SDS011;67758;39.572;2.652;2023-12-28T02:33:29;10.50;;;4.68;;
68449;SDS011;67758;39.572;2.652;2023-12-28T02:36:23;8.65;;;4.57;;
68449;SDS011;67758;39.572;2.652;2023-12-28T02:39:08;10.90;;;4.10;;
68449;SDS011;67758;39.572;2.652;2023-12-28T02:41:55;7.57;;;3.73;;
68449;SDS011;67758;39.572;2.652;2023-12-28T02:44:40;9.32;;;4.32;;
68449;SDS011;67758;39.572;2.652;2023-12-28T02:47:31;8.50;;;4.13;;
68449;SDS011;67758;39.572;2.652;2023-12-28T02:50:18;9.43;;;3.58;;
68449;SDS011;67758;39.572;2.652;2023-12-28T02:53:16;9.15;;;3.90;;
68449;SDS011;67758;39.572;2.652;2023-12-28T02:56:10;7.40;;;3.57;;
68449;SDS011;67758;39.572;2.652;2023-12-28T02:59:06;8.35;;;4.00;;
68449;SDS011;67758;39.572;2.652;2023-12-28T03:02:12;8.60;;;4.18;;
68449;SDS011;67758;39.572;2.652;2023-12-28T03:05:00;8.90;;;4.30;;
68449;SDS011;67758;39.572;2.652;2023-12-28T03:07:54;8.40;;;4.05;;
68449;SDS011;67758;39.572;2.652;2023-12-28T03:10:47;12.53;;;4.23;;
68449;SDS011;67758;39.572;2.652;2023-12-28T03:13:36;8.88;;;4.05;;
68449;SDS011;67758;39.572;2.652;2023-12-28T03:17:08;7.95;;;3.25;;
68449;SDS011;67758;39.572;2.652;2023-12-28T03:20:11;8.13;;;3.72;;
68449;SDS011;67758;39.572;2.652;2023-12-28T03:23:02;7.63;;;3.53;;
68449;SDS011;67758;39.572;2.652;2023-12-28T03:26:09;8.57;;;3.83;;
68449;SDS011;67758;39.572;2.652;2023-12-28T03:28:54;11.00;;;4.25;;
68449;SDS011;67758;39.572;2.652;2023-12-28T03:31:44;8.48;;;3.67;;
68449;SDS011;67758;39.572;2.652;2023-12-28T03:34:28;10.15;;;3.80;;
68449;SDS011;67758;39.572;2.652;2023-12-28T03:37:14;7.32;;;3.45;;
68449;SDS011;67758;39.572;2.652;2023-12-28T03:39:58;8.30;;;4.00;;
68449;SDS011;67758;39.572;2.652;2023-12-28T03:42:48;10.85;;;4.20;;
68449;SDS011;67758;39.572;2.652;2023-12-28T03:45:34;10.27;;;3.58;;
68449;SDS011;67758;39.572;2.652;2023-12-28T03:48:18;8.73;;;4.05;;
68449;SDS011;67758;39.572;2.652;2023-12-28T03:51:04;9.60;;;4.55;;
68449;SDS011;67758;39.572;2.652;2023-12-28T03:53:49;8.10;;;4.40;;
68449;SDS011;67758;39.572;2.652;2023-12-28T03:56:35;8.68;;;4.32;;
68449;SDS011;67758;39.572;2.652;2023-12-28T03:59:19;9.43;;;4.18;;
68449;SDS011;67758;39.572;2.652;2023-12-28T04:02:03;8.77;;;4.15;;
68449;SDS011;67758;39.572;2.652;2023-12-28T04:04:47;8.48;;;4.25;;
68449;SDS011;67758;39.572;2.652;2023-12-28T04:07:32;8.57;;;4.30;;
68449;SDS011;67758;39.572;2.652;2023-12-28T04:10:21;7.78;;;4.30;;
68449;SDS011;67758;39.572;2.652;2023-12-28T04:13:13;9.25;;;4.90;;
68449;SDS011;67758;39.572;2.652;2023-12-28T04:15:58;8.95;;;4.10;;
68449;SDS011;67758;39.572;2.652;2023-12-28T04:18:44;11.38;;;4.20;;
68449;SDS011;67758;39.572;2.652;2023-12-28T04:21:28;7.27;;;3.80;;
68449;SDS011;67758;39.572;2.652;2023-12-28T04:24:13;9.23;;;3.88;;
68449;SDS011;67758;39.572;2.652;2023-12-28T04:26:57;10.07;;;4.43;;
68449;SDS011;67758;39.572;2.652;2023-12-28T04:29:41;8.52;;;3.70;;
68449;SDS011;67758;39.572;2.652;2023-12-28T04:32:25;8.88;;;4.22;;
68449;SDS011;67758;39.572;2.652;2023-12-28T04:35:10;8.87;;;3.87;;
68449;SDS011;67758;39.572;2.652;2023-12-28T04:37:55;8.63;;;4.13;;
68449;SDS011;67758;39.572;2.652;2023-12-28T04:40:57;7.70;;;4.20;;
68449;SDS011;67758;39.572;2.652;2023-12-28T04:43:43;8.73;;;4.00;;
68449;SDS011;67758;39.572;2.652;2023-12-28T04:46:30;8.50;;;4.43;;
68449;SDS011;67758;39.572;2.652;2023-12-28T04:49:19;8.57;;;4.03;;
68449;SDS011;67758;39.572;2.652;2023-12-28T04:52:12;9.85;;;4.32;;
68449;SDS011;67758;39.572;2.652;2023-12-28T04:55:12;8.70;;;4.22;;
68449;SDS011;67758;39.572;2.652;2023-12-28T04:58:16;8.82;;;4.43;;
68449;SDS011;67758;39.572;2.652;2023-12-28T05:01:01;7.95;;;4.32;;
68449;SDS011;67758;39.572;2.652;2023-12-28T05:03:46;9.73;;;4.50;;
68449;SDS011;67758;39.572;2.652;2023-12-28T05:06:30;12.60;;;5.15;;
68449;SDS011;67758;39.572;2.652;2023-12-28T05:09:14;9.15;;;4.30;;
68449;SDS011;67758;39.572;2.652;2023-12-28T05:11:58;9.02;;;4.53;;
68449;SDS011;67758;39.572;2.652;2023-12-28T05:14:42;8.55;;;4.43;;
68449;SDS011;67758;39.572;2.652;2023-12-28T05:17:27;10.23;;;4.40;;
68449;SDS011;67758;39.572;2.652;2023-12-28T05:20:11;9.82;;;4.78;;
68449;SDS011;67758;39.572;2.652;2023-12-28T05:22:56;10.02;;;4.97;;
68449;SDS011;67758;39.572;2.652;2023-12-28T05:25:40;14.35;;;5.25;;
68449;SDS011;67758;39.572;2.652;2023-12-28T05:28:28;9.15;;;4.28;;
68449;SDS011;67758;39.572;2.652;2023-12-28T05:31:13;10.13;;;4.80;;
68449;SDS011;67758;39.572;2.652;2023-12-28T05:34:02;9.10;;;5.10;;
68449;SDS011;67758;39.572;2.652;2023-12-28T05:36:47;30.50;;;6.95;;
68449;SDS011;67758;39.572;2.652;2023-12-28T05:39:32;10.30;;;5.15;;
68449;SDS011;67758;39.572;2.652;2023-12-28T05:42:20;11.90;;;5.38;;
68449;SDS011;67758;39.572;2.652;2023-12-28T05:48:37;11.35;;;5.72;;
68449;SDS011;67758;39.572;2.652;2023-12-28T05:52:34;11.52;;;5.45;;
68449;SDS011;67758;39.572;2.652;2023-12-28T05:55:22;11.07;;;5.40;;
68449;SDS011;67758;39.572;2.652;2023-12-28T05:58:10;12.25;;;5.93;;
68449;SDS011;67758;39.572;2.652;2023-12-28T06:01:00;13.27;;;6.00;;
68449;SDS011;67758;39.572;2.652;2023-12-28T06:03:56;11.38;;;6.55;;
68449;SDS011;67758;39.572;2.652;2023-12-28T06:06:40;11.52;;;5.68;;
68449;SDS011;67758;39.572;2.652;2023-12-28T06:09:25;11.43;;;5.95;;
68449;SDS011;67758;39.572;2.652;2023-12-28T06:12:11;11.82;;;5.93;;
68449;SDS011;67758;39.572;2.652;2023-12-28T06:14:56;12.33;;;5.10;;
68449;SDS011;67758;39.572;2.652;2023-12-28T06:17:47;14.23;;;5.22;;
68449;SDS011;67758;39.572;2.652;2023-12-28T06:20:33;14.27;;;5.55;;
68449;SDS011;67758;39.572;2.652;2023-12-28T06:23:22;17.70;;;5.93;;
68449;SDS011;67758;39.572;2.652;2023-12-28T06:26:08;12.15;;;5.47;;
68449;SDS011;67758;39.572;2.652;2023-12-28T06:28:56;14.17;;;5.27;;
68449;SDS011;67758;39.572;2.652;2023-12-28T06:31:41;10.70;;;5.05;;
68449;SDS011;67758;39.572;2.652;2023-12-28T06:34:27;13.63;;;5.70;;
68449;SDS011;67758;39.572;2.652;2023-12-28T06:37:11;12.60;;;5.60;;
68449;SDS011;67758;39.572;2.652;2023-12-28T06:39:57;16.42;;;6.20;;
68449;SDS011;67758;39.572;2.652;2023-12-28T06:42:41;13.80;;;5.67;;
68449;SDS011;67758;39.572;2.652;2023-12-28T06:45:28;14.38;;;6.15;;
68449;SDS011;67758;39.572;2.652;2023-12-28T06:48:15;14.52;;;6.93;;
68449;SDS011;67758;39.572;2.652;2023-12-28T06:51:02;14.07;;;6.60;;
68449;SDS011;67758;39.572;2.652;2023-12-28T06:53:46;11.55;;;5.78;;
68449;SDS011;67758;39.572;2.652;2023-12-28T06:56:34;15.20;;;6.70;;
68449;SDS011;67758;39.572;2.652;2023-12-28T06:59:23;15.07;;;7.68;;
68449;SDS011;67758;39.572;2.652;2023-12-28T07:02:10;14.10;;;6.68;;
68449;SDS011;67758;39.572;2.652;2023-12-28T07:05:03;13.30;;;6.38;;
68449;SDS011;67758;39.572;2.652;2023-12-28T07:08:08;19.75;;;6.50;;
68449;SDS011;67758;39.572;2.652;2023-12-28T07:10:59;15.63;;;7.43;;
68449;SDS011;67758;39.572;2.652;2023-12-28T07:13:45;16.60;;;7.43;;
68449;SDS011;67758;39.572;2.652;2023-12-28T07:16:31;13.52;;;7.05;;
68449;SDS011;67758;39.572;2.652;2023-12-28T07:19:22;13.45;;;7.90;;
68449;SDS011;67758;39.572;2.652;2023-12-28T07:22:13;17.30;;;8.20;;
68449;SDS011;67758;39.572;2.652;2023-12-28T07:25:08;18.27;;;8.07;;
68449;SDS011;67758;39.572;2.652;2023-12-28T07:27:53;12.88;;;7.40;;
68449;SDS011;67758;39.572;2.652;2023-12-28T07:30:43;15.43;;;8.38;;
68449;SDS011;67758;39.572;2.652;2023-12-28T07:33:30;16.23;;;7.35;;
68449;SDS011;67758;39.572;2.652;2023-12-28T07:36:26;21.52;;;8.77;;
68449;SDS011;67758;39.572;2.652;2023-12-28T07:39:13;15.93;;;7.67;;
68449;SDS011;67758;39.572;2.652;2023-12-28T07:42:00;13.48;;;7.40;;
68449;SDS011;67758;39.572;2.652;2023-12-28T07:44:54;18.77;;;8.38;;
68449;SDS011;67758;39.572;2.652;2023-12-28T07:47:39;15.88;;;8.13;;
68449;SDS011;67758;39.572;2.652;2023-12-28T07:50:29;18.63;;;8.45;;
68449;SDS011;67758;39.572;2.652;2023-12-28T07:53:14;15.87;;;9.30;;
68449;SDS011;67758;39.572;2.652;2023-12-28T07:56:11;18.40;;;8.13;;
68449;SDS011;67758;39.572;2.652;2023-12-28T07:58:57;14.27;;;9.27;;
68449;SDS011;67758;39.572;2.652;2023-12-28T08:01:41;15.52;;;8.45;;
68449;SDS011;67758;39.572;2.652;2023-12-28T08:04:26;16.45;;;8.18;;
68449;SDS011;67758;39.572;2.652;2023-12-28T08:07:26;20.90;;;8.60;;
68449;SDS011;67758;39.572;2.652;2023-12-28T08:10:30;20.02;;;9.27;;
68449;SDS011;67758;39.572;2.652;2023-12-28T08:13:35;17.60;;;8.30;;
68449;SDS011;67758;39.572;2.652;2023-12-28T08:16:20;14.68;;;8.27;;
68449;SDS011;67758;39.572;2.652;2023-12-28T08:19:06;19.52;;;7.60;;
68449;SDS011;67758;39.572;2.652;2023-12-28T08:22:00;15.77;;;7.13;;
68449;SDS011;67758;39.572;2.652;2023-12-28T08:25:25;14.13;;;7.65;;
68449;SDS011;67758;39.572;2.652;2023-12-28T08:28:20;21.85;;;8.32;;
68449;SDS011;67758;39.572;2.652;2023-12-28T08:31:33;16.13;;;8.32;;
68449;SDS011;67758;39.572;2.652;2023-12-28T08:35:04;15.77;;;8.20;;
68449;SDS011;67758;39.572;2.652;2023-12-28T08:38:10;14.63;;;8.50;;
68449;SDS011;67758;39.572;2.652;2023-12-28T08:41:19;18.70;;;8.75;;
68449;SDS011;67758;39.572;2.652;2023-12-28T08:44:05;15.07;;;8.88;;
68449;SDS011;67758;39.572;2.652;2023-12-28T08:47:04;16.02;;;8.55;;
68449;SDS011;67758;39.572;2.652;2023-12-28T08:49:59;17.52;;;9.65;;
68449;SDS011;67758;39.572;2.652;2023-12-28T08:53:07;18.93;;;9.17;;
68449;SDS011;67758;39.572;2.652;2023-12-28T08:55:52;14.35;;;9.02;;
68449;SDS011;67758;39.572;2.652;2023-12-28T08:59:04;16.38;;;9.45;;
68449;SDS011;67758;39.572;2.652;2023-12-28T09:01:48;14.48;;;8.68;;
68449;SDS011;67758;39.572;2.652;2023-12-28T09:04:40;17.48;;;9.60;;
68449;SDS011;67758;39.572;2.652;2023-12-28T09:07:25;15.87;;;9.00;;
68449;SDS011;67758;39.572;2.652;2023-12-28T09:10:15;16.55;;;8.85;;
68449;SDS011;67758;39.572;2.652;2023-12-28T09:13:04;16.02;;;9.13;;
68449;SDS011;67758;39.572;2.652;2023-12-28T09:16:06;20.65;;;8.82;;
68449;SDS011;67758;39.572;2.652;2023-12-28T09:19:03;15.48;;;8.43;;
68449;SDS011;67758;39.572;2.652;2023-12-28T09:21:47;15.53;;;8.80;;
68449;SDS011;67758;39.572;2.652;2023-12-28T09:24:32;15.75;;;9.15;;
68449;SDS011;67758;39.572;2.652;2023-12-28T09:27:20;16.00;;;8.75;;
68449;SDS011;67758;39.572;2.652;2023-12-28T09:30:17;20.05;;;9.13;;
68449;SDS011;67758;39.572;2.652;2023-12-28T09:33:16;14.13;;;9.00;;
68449;SDS011;67758;39.572;2.652;2023-12-28T09:36:06;15.07;;;8.57;;
68449;SDS011;67758;39.572;2.652;2023-12-28T09:39:10;14.75;;;9.23;;
68449;SDS011;67758;39.572;2.652;2023-12-28T09:41:59;17.35;;;9.02;;
68449;SDS011;67758;39.572;2.652;2023-12-28T09:44:58;15.45;;;9.52;;
68449;SDS011;67758;39.572;2.652;2023-12-28T09:48:08;17.30;;;9.23;;
68449;SDS011;67758;39.572;2.652;2023-12-28T09:51:22;15.43;;;9.93;;
68449;SDS011;67758;39.572;2.652;2023-12-28T09:54:11;15.25;;;9.45;;
68449;SDS011;67758;39.572;2.652;2023-12-28T09:57:16;18.55;;;10.55;;
68449;SDS011;67758;39.572;2.652;2023-12-28T10:00:45;16.05;;;9.23;;
68449;SDS011;67758;39.572;2.652;2023-12-28T10:03:54;18.92;;;10.10;;
68449;SDS011;67758;39.572;2.652;2023-12-28T10:07:31;15.60;;;9.50;;
68449;SDS011;67758;39.572;2.652;2023-12-28T10:10:44;18.73;;;9.40;;
68449;SDS011;67758;39.572;2.652;2023-12-28T10:13:35;15.23;;;10.63;;
68449;SDS011;67758;39.572;2.652;2023-12-28T10:16:21;14.18;;;9.88;;
68449;SDS011;67758;39.572;2.652;2023-12-28T10:19:21;15.77;;;9.73;;
68449;SDS011;67758;39.572;2.652;2023-12-28T10:22:31;16.20;;;9.47;;
68449;SDS011;67758;39.572;2.652;2023-12-28T10:26:06;15.15;;;9.98;;
68449;SDS011;67758;39.572;2.652;2023-12-28T10:29:07;16.77;;;9.50;;
68449;SDS011;67758;39.572;2.652;2023-12-28T10:32:33;15.50;;;9.90;;
68449;SDS011;67758;39.572;2.652;2023-12-28T10:35:43;13.00;;;8.05;;
68449;SDS011;67758;39.572;2.652;2023-12-28T10:39:49;11.07;;;6.63;;
68449;SDS011;67758;39.572;2.652;2023-12-28T10:43:05;10.35;;;6.47;;
68449;SDS011;67758;39.572;2.652;2023-12-28T10:45:57;12.00;;;7.85;;
68449;SDS011;67758;39.572;2.652;2023-12-28T10:48:44;12.80;;;7.95;;
68449;SDS011;67758;39.572;2.652;2023-12-28T10:58:37;9.50;;;5.88;;
68449;SDS011;67758;39.572;2.652;2023-12-28T11:01:57;12.77;;;6.45;;
68449;SDS011;67758;39.572;2.652;2023-12-28T11:04:55;10.73;;;6.43;;
68449;SDS011;67758;39.572;2.652;2023-12-28T11:08:10;13.65;;;6.03;;
68449;SDS011;67758;39.572;2.652;2023-12-28T11:11:13;12.33;;;6.10;;
68449;SDS011;67758;39.572;2.652;2023-12-28T11:14:20;10.40;;;5.82;;
68449;SDS011;67758;39.572;2.652;2023-12-28T11:17:25;7.72;;;4.53;;
68449;SDS011;67758;39.572;2.652;2023-12-28T11:20:10;10.70;;;5.25;;
68449;SDS011;67758;39.572;2.652;2023-12-28T11:22:58;8.15;;;5.03;;
68449;SDS011;67758;39.572;2.652;2023-12-28T11:25:57;8.83;;;4.93;;
68449;SDS011;67758;39.572;2.652;2023-12-28T11:32:16;9.93;;;5.50;;
68449;SDS011;67758;39.572;2.652;2023-12-28T11:35:12;8.82;;;4.63;;
68449;SDS011;67758;39.572;2.652;2023-12-28T11:38:11;8.48;;;4.00;;
68449;SDS011;67758;39.572;2.652;2023-12-28T11:41:22;9.00;;;4.73;;
68449;SDS011;67758;39.572;2.652;2023-12-28T11:44:25;8.60;;;4.43;;
68449;SDS011;67758;39.572;2.652;2023-12-28T11:51:08;9.85;;;4.78;;
68449;SDS011;67758;39.572;2.652;2023-12-28T12:01:13;10.02;;;6.00;;
68449;SDS011;67758;39.572;2.652;2023-12-28T12:04:24;11.00;;;6.03;;
68449;SDS011;67758;39.572;2.652;2023-12-28T12:10:46;18.40;;;9.30;;
68449;SDS011;67758;39.572;2.652;2023-12-28T12:13:54;12.33;;;7.50;;
68449;SDS011;67758;39.572;2.652;2023-12-28T12:24:22;10.75;;;5.45;;
68449;SDS011;67758;39.572;2.652;2023-12-28T12:27:34;8.88;;;5.40;;
68449;SDS011;67758;39.572;2.652;2023-12-28T12:30:25;12.90;;;5.27;;
68449;SDS011;67758;39.572;2.652;2023-12-28T12:33:11;14.77;;;7.80;;
68449;SDS011;67758;39.572;2.652;2023-12-28T12:36:01;12.20;;;6.60;;
68449;SDS011;67758;39.572;2.652;2023-12-28T12:39:27;11.93;;;6.97;;
68449;SDS011;67758;39.572;2.652;2023-12-28T12:42:33;10.35;;;5.40;;
68449;SDS011;67758;39.572;2.652;2023-12-28T12:45:23;13.33;;;6.30;;
68449;SDS011;67758;39.572;2.652;2023-12-28T12:48:39;12.15;;;6.05;;
68449;SDS011;67758;39.572;2.652;2023-12-28T12:51:56;11.13;;;6.20;;
68449;SDS011;67758;39.572;2.652;2023-12-28T12:54:51;10.10;;;6.00;;
68449;SDS011;67758;39.572;2.652;2023-12-28T12:58:15;34.25;;;10.18;;
68449;SDS011;67758;39.572;2.652;2023-12-28T13:01:25;11.90;;;5.67;;
68449;SDS011;67758;39.572;2.652;2023-12-28T13:04:22;8.70;;;4.65;;
68449;SDS011;67758;39.572;2.652;2023-12-28T13:07:12;10.70;;;5.78;;
68449;SDS011;67758;39.572;2.652;2023-12-28T13:10:06;15.35;;;7.00;;
68449;SDS011;67758;39.572;2.652;2023-12-28T13:13:35;9.43;;;5.13;;
68449;SDS011;67758;39.572;2.652;2023-12-28T13:16:32;9.50;;;4.73;;
68449;SDS011;67758;39.572;2.652;2023-12-28T13:19:58;8.23;;;4.10;;
68449;SDS011;67758;39.572;2.652;2023-12-28T13:22:46;8.82;;;4.95;;
68449;SDS011;67758;39.572;2.652;2023-12-28T13:25:44;7.70;;;4.60;;
68449;SDS011;67758;39.572;2.652;2023-12-28T13:35:09;6.95;;;3.35;;
68449;SDS011;67758;39.572;2.652;2023-12-28T13:37:54;8.35;;;4.07;;
68449;SDS011;67758;39.572;2.652;2023-12-28T13:40:51;11.85;;;4.70;;
68449;SDS011;67758;39.572;2.652;2023-12-28T13:43:37;10.50;;;4.85;;
68449;SDS011;67758;39.572;2.652;2023-12-28T13:46:47;9.60;;;4.00;;
68449;SDS011;67758;39.572;2.652;2023-12-28T13:49:41;13.68;;;6.72;;
68449;SDS011;67758;39.572;2.652;2023-12-28T13:52:27;11.35;;;5.93;;
68449;SDS011;67758;39.572;2.652;2023-12-28T13:55:20;8.77;;;4.15;;
68449;SDS011;67758;39.572;2.652;2023-12-28T14:08:30;8.93;;;4.03;;
68449;SDS011;67758;39.572;2.652;2023-12-28T14:11:30;13.20;;;5.82;;
68449;SDS011;67758;39.572;2.652;2023-12-28T14:18:08;13.97;;;4.87;;
68449;SDS011;67758;39.572;2.652;2023-12-28T14:21:17;9.27;;;4.15;;
68449;SDS011;67758;39.572;2.652;2023-12-28T14:24:28;7.97;;;3.80;;
68449;SDS011;67758;39.572;2.652;2023-12-28T14:27:35;8.75;;;4.70;;
68449;SDS011;67758;39.572;2.652;2023-12-28T14:30:26;11.90;;;5.07;;
68449;SDS011;67758;39.572;2.652;2023-12-28T14:36:52;14.57;;;5.50;;
68449;SDS011;67758;39.572;2.652;2023-12-28T14:39:51;9.48;;;4.32;;
68449;SDS011;67758;39.572;2.652;2023-12-28T14:42:56;9.75;;;4.35;;
68449;SDS011;67758;39.572;2.652;2023-12-28T14:45:58;8.85;;;4.30;;
68449;SDS011;67758;39.572;2.652;2023-12-28T14:49:14;9.97;;;5.47;;
68449;SDS011;67758;39.572;2.652;2023-12-28T14:52:19;12.50;;;4.63;;
68449;SDS011;67758;39.572;2.652;2023-12-28T14:55:13;12.57;;;5.50;;
68449;SDS011;67758;39.572;2.652;2023-12-28T14:58:11;12.38;;;5.30;;
68449;SDS011;67758;39.572;2.652;2023-12-28T15:01:23;8.52;;;5.10;;
68449;SDS011;67758;39.572;2.652;2023-12-28T15:08:13;10.23;;;5.28;;
68449;SDS011;67758;39.572;2.652;2023-12-28T15:11:07;9.02;;;4.85;;
68449;SDS011;67758;39.572;2.652;2023-12-28T15:20:25;9.17;;;4.53;;
68449;SDS011;67758;39.572;2.652;2023-12-28T15:27:29;10.50;;;5.68;;
68449;SDS011;67758;39.572;2.652;2023-12-28T15:30:46;12.23;;;6.43;;
68449;SDS011;67758;39.572;2.652;2023-12-28T15:36:44;10.70;;;6.20;;
68449;SDS011;67758;39.572;2.652;2023-12-28T15:39:42;11.75;;;5.80;;
68449;SDS011;67758;39.572;2.652;2023-12-28T15:42:31;10.52;;;4.78;;
68449;SDS011;67758;39.572;2.652;2023-12-28T15:45:44;12.43;;;6.05;;
68449;SDS011;67758;39.572;2.652;2023-12-28T15:48:57;11.68;;;6.10;;
68449;SDS011;67758;39.572;2.652;2023-12-28T15:51:43;10.57;;;4.90;;
68449;SDS011;67758;39.572;2.652;2023-12-28T15:58:13;13.18;;;6.07;;
68449;SDS011;67758;39.572;2.652;2023-12-28T16:04:29;11.98;;;5.13;;
68449;SDS011;67758;39.572;2.652;2023-12-28T16:07:44;11.60;;;5.90;;
68449;SDS011;67758;39.572;2.652;2023-12-28T16:10:41;11.75;;;6.10;;
68449;SDS011;67758;39.572;2.652;2023-12-28T16:17:27;15.52;;;6.50;;
68449;SDS011;67758;39.572;2.652;2023-12-28T16:20:52;13.77;;;6.22;;
68449;SDS011;67758;39.572;2.652;2023-12-28T16:26:54;21.25;;;6.40;;
68449;SDS011;67758;39.572;2.652;2023-12-28T16:32:46;12.20;;;5.95;;
68449;SDS011;67758;39.572;2.652;2023-12-28T16:36:12;11.05;;;5.95;;
68449;SDS011;67758;39.572;2.652;2023-12-28T16:43:06;16.23;;;6.85;;
68449;SDS011;67758;39.572;2.652;2023-12-28T16:46:42;15.70;;;6.45;;
68449;SDS011;67758;39.572;2.652;2023-12-28T16:49:46;13.65;;;7.45;;
68449;SDS011;67758;39.572;2.652;2023-12-28T16:52:57;16.10;;;8.05;;
68449;SDS011;67758;39.572;2.652;2023-12-28T16:56:18;13.97;;;7.93;;
68449;SDS011;67758;39.572;2.652;2023-12-28T16:59:32;13.05;;;7.07;;
68449;SDS011;67758;39.572;2.652;2023-12-28T17:02:23;15.10;;;8.13;;
68449;SDS011;67758;39.572;2.652;2023-12-28T17:05:20;13.38;;;8.35;;
68449;SDS011;67758;39.572;2.652;2023-12-28T17:08:52;20.58;;;9.10;;
68449;SDS011;67758;39.572;2.652;2023-12-28T17:11:53;15.10;;;8.47;;
68449;SDS011;67758;39.572;2.652;2023-12-28T17:14:53;15.68;;;8.52;;
68449;SDS011;67758;39.572;2.652;2023-12-28T17:17:45;20.88;;;9.43;;
68449;SDS011;67758;39.572;2.652;2023-12-28T17:20:44;18.80;;;9.43;;
68449;SDS011;67758;39.572;2.652;2023-12-28T17:23:38;19.67;;;10.40;;
68449;SDS011;67758;39.572;2.652;2023-12-28T17:30:18;15.23;;;8.15;;
68449;SDS011;67758;39.572;2.652;2023-12-28T17:40:20;16.17;;;9.70;;
68449;SDS011;67758;39.572;2.652;2023-12-28T17:53:56;15.82;;;9.50;;
68449;SDS011;67758;39.572;2.652;2023-12-28T18:00:08;16.73;;;9.53;;
68449;SDS011;67758;39.572;2.652;2023-12-28T18:02:55;17.33;;;8.68;;
68449;SDS011;67758;39.572;2.652;2023-12-28T18:05:57;17.92;;;8.90;;
68449;SDS011;67758;39.572;2.652;2023-12-28T18:15:54;18.93;;;10.57;;
68449;SDS011;67758;39.572;2.652;2023-12-28T18:18:59;18.63;;;9.80;;
68449;SDS011;67758;39.572;2.652;2023-12-28T18:21:49;22.33;;;10.95;;
68449;SDS011;67758;39.572;2.652;2023-12-28T18:24:41;17.77;;;9.68;;
68449;SDS011;67758;39.572;2.652;2023-12-28T18:27:45;21.95;;;11.13;;
68449;SDS011;67758;39.572;2.652;2023-12-28T18:31:04;18.53;;;10.10;;
68449;SDS011;67758;39.572;2.652;2023-12-28T18:34:32;20.77;;;11.57;;
68449;SDS011;67758;39.572;2.652;2023-12-28T18:37:54;17.08;;;8.93;;
68449;SDS011;67758;39.572;2.652;2023-12-28T18:40:56;17.33;;;10.80;;
68449;SDS011;67758;39.572;2.652;2023-12-28T18:44:05;20.35;;;11.02;;
68449;SDS011;67758;39.572;2.652;2023-12-28T18:46:54;23.37;;;11.47;;
68449;SDS011;67758;39.572;2.652;2023-12-28T18:49:43;18.73;;;10.57;;
68449;SDS011;67758;39.572;2.652;2023-12-28T18:52:27;18.27;;;9.25;;
68449;SDS011;67758;39.572;2.652;2023-12-28T18:55:12;17.98;;;9.00;;
68449;SDS011;67758;39.572;2.652;2023-12-28T18:58:08;17.15;;;9.82;;
68449;SDS011;67758;39.572;2.652;2023-12-28T19:01:01;16.47;;;8.07;;
68449;SDS011;67758;39.572;2.652;2023-12-28T19:03:59;13.77;;;8.63;;
68449;SDS011;67758;39.572;2.652;2023-12-28T19:06:49;13.57;;;7.20;;
68449;SDS011;67758;39.572;2.652;2023-12-28T19:09:44;16.38;;;10.30;;
68449;SDS011;67758;39.572;2.652;2023-12-28T19:12:47;18.13;;;9.25;;
68449;SDS011;67758;39.572;2.652;2023-12-28T19:15:57;13.60;;;7.53;;
68449;SDS011;67758;39.572;2.652;2023-12-28T19:19:02;15.25;;;10.82;;
68449;SDS011;67758;39.572;2.652;2023-12-28T19:21:50;16.58;;;9.77;;
68449;SDS011;67758;39.572;2.652;2023-12-28T19:24:35;15.10;;;9.90;;
68449;SDS011;67758;39.572;2.652;2023-12-28T19:27:19;18.27;;;11.55;;
68449;SDS011;67758;39.572;2.652;2023-12-28T19:30:05;18.93;;;10.70;;
68449;SDS011;67758;39.572;2.652;2023-12-28T19:33:04;15.20;;;9.43;;
68449;SDS011;67758;39.572;2.652;2023-12-28T19:35:51;15.85;;;9.38;;
68449;SDS011;67758;39.572;2.652;2023-12-28T19:38:38;18.15;;;11.07;;
68449;SDS011;67758;39.572;2.652;2023-12-28T19:41:27;16.55;;;9.75;;
68449;SDS011;67758;39.572;2.652;2023-12-28T19:44:16;12.23;;;7.33;;